sensor_id;sensor_type;location;lat;lon;timestamp;P1;durP1;ratioP1;P2;durP2;ratioP2
70543;SDS011;58097;48.364;-1.224;2022-12-07T00:01:34;24.23;;;11.05;;
70543;SDS011;58097;48.364;-1.224;2022-12-07T00:04:04;23.00;;;13.50;;
70543;SDS011;58097;48.364;-1.224;2022-12-07T00:06:32;26.50;;;12.00;;
70543;SDS011;58097;48.364;-1.224;2022-12-07T00:08:59;26.25;;;12.50;;
70543;SDS011;58097;48.364;-1.224;2022-12-07T00:11:25;23.80;;;11.10;;
70543;SDS011;58097;48.364;-1.224;2022-12-07T00:13:52;24.08;;;12.50;;
70543;SDS011;58097;48.364;-1.224;2022-12-07T00:16:20;21.90;;;10.93;;
70543;SDS011;58097;48.364;-1.224;2022-12-07T00:18:47;21.55;;;10.55;;
70543;SDS011;58097;48.364;-1.224;2022-12-07T00:21:14;19.55;;;10.77;;
70543;SDS011;58097;48.364;-1.224;2022-12-07T00:23:41;25.63;;;11.38;;
70543;SDS011;58097;48.364;-1.224;2022-12-07T00:26:09;27.75;;;11.73;;
70543;SDS011;58097;48.364;-1.224;2022-12-07T00:28:40;21.73;;;10.55;;
70543;SDS011;58097;48.364;-1.224;2022-12-07T00:31:07;19.35;;;10.70;;
70543;SDS011;58097;48.364;-1.224;2022-12-07T00:33:34;23.45;;;11.40;;
70543;SDS011;58097;48.364;-1.224;2022-12-07T00:36:00;21.10;;;11.40;;
70543;SDS011;58097;48.364;-1.224;2022-12-07T00:38:28;26.55;;;12.25;;
70543;SDS011;58097;48.364;-1.224;2022-12-07T00:40:55;28.33;;;11.45;;
70543;SDS011;58097;48.364;-1.224;2022-12-07T00:43:25;22.73;;;10.40;;
70543;SDS011;58097;48.364;-1.224;2022-12-07T00:45:51;15.38;;;8.43;;
70543;SDS011;58097;48.364;-1.224;2022-12-07T00:48:17;26.73;;;11.27;;
70543;SDS011;58097;48.364;-1.224;2022-12-07T00:50:43;21.67;;;9.98;;
70543;SDS011;58097;48.364;-1.224;2022-12-07T00:53:08;20.63;;;9.63;;
70543;SDS011;58097;48.364;-1.224;2022-12-07T00:55:34;21.80;;;11.82;;
70543;SDS011;58097;48.364;-1.224;2022-12-07T00:58:00;24.02;;;11.68;;
70543;SDS011;58097;48.364;-1.224;2022-12-07T01:00:26;19.23;;;10.90;;
70543;SDS011;58097;48.364;-1.224;2022-12-07T01:02:51;22.92;;;9.95;;
70543;SDS011;58097;48.364;-1.224;2022-12-07T01:05:17;28.73;;;12.95;;
70543;SDS011;58097;48.364;-1.224;2022-12-07T01:07:42;26.77;;;11.65;;
70543;SDS011;58097;48.364;-1.224;2022-12-07T01:10:08;24.77;;;11.63;;
70543;SDS011;58097;48.364;-1.224;2022-12-07T01:12:33;31.08;;;11.52;;
70543;SDS011;58097;48.364;-1.224;2022-12-07T01:14:59;26.63;;;12.52;;
70543;SDS011;58097;48.364;-1.224;2022-12-07T01:17:24;28.85;;;11.73;;
70543;SDS011;58097;48.364;-1.224;2022-12-07T01:19:50;26.20;;;12.02;;
70543;SDS011;58097;48.364;-1.224;2022-12-07T01:22:15;26.40;;;12.15;;
70543;SDS011;58097;48.364;-1.224;2022-12-07T01:24:40;22.40;;;12.10;;
70543;SDS011;58097;48.364;-1.224;2022-12-07T01:27:06;29.98;;;13.50;;
70543;SDS011;58097;48.364;-1.224;2022-12-07T01:29:31;18.20;;;10.85;;
70543;SDS011;58097;48.364;-1.224;2022-12-07T01:31:56;25.65;;;12.23;;
70543;SDS011;58097;48.364;-1.224;2022-12-07T01:34:22;26.45;;;11.70;;
70543;SDS011;58097;48.364;-1.224;2022-12-07T01:36:47;26.75;;;11.60;;
70543;SDS011;58097;48.364;-1.224;2022-12-07T01:39:13;21.00;;;10.32;;
70543;SDS011;58097;48.364;-1.224;2022-12-07T01:41:39;23.77;;;12.50;;
70543;SDS011;58097;48.364;-1.224;2022-12-07T01:46:38;24.42;;;10.80;;
70543;SDS011;58097;48.364;-1.224;2022-12-07T01:49:04;21.70;;;10.98;;
70543;SDS011;58097;48.364;-1.224;2022-12-07T01:51:33;17.33;;;10.48;;
70543;SDS011;58097;48.364;-1.224;2022-12-07T01:53:59;19.00;;;10.90;;
70543;SDS011;58097;48.364;-1.224;2022-12-07T01:56:26;16.70;;;8.70;;
70543;SDS011;58097;48.364;-1.224;2022-12-07T01:58:53;18.95;;;8.93;;
70543;SDS011;58097;48.364;-1.224;2022-12-07T02:01:21;15.50;;;8.23;;
70543;SDS011;58097;48.364;-1.224;2022-12-07T02:03:47;15.63;;;9.15;;
70543;SDS011;58097;48.364;-1.224;2022-12-07T02:06:15;17.85;;;9.38;;
70543;SDS011;58097;48.364;-1.224;2022-12-07T02:08:44;17.85;;;9.35;;
70543;SDS011;58097;48.364;-1.224;2022-12-07T02:11:11;17.45;;;10.30;;
70543;SDS011;58097;48.364;-1.224;2022-12-07T02:13:37;16.67;;;9.43;;
70543;SDS011;58097;48.364;-1.224;2022-12-07T02:24:31;16.50;;;8.77;;
70543;SDS011;58097;48.364;-1.224;2022-12-07T02:32:23;20.80;;;9.52;;
70543;SDS011;58097;48.364;-1.224;2022-12-07T02:34:50;18.50;;;9.35;;
70543;SDS011;58097;48.364;-1.224;2022-12-07T02:42:47;17.08;;;9.00;;
70543;SDS011;58097;48.364;-1.224;2022-12-07T02:45:17;13.93;;;8.55;;
70543;SDS011;58097;48.364;-1.224;2022-12-07T02:47:47;20.33;;;9.02;;
70543;SDS011;58097;48.364;-1.224;2022-12-07T02:50:17;13.27;;;8.07;;
70543;SDS011;58097;48.364;-1.224;2022-12-07T02:52:45;14.95;;;8.52;;
70543;SDS011;58097;48.364;-1.224;2022-12-07T02:55:10;14.57;;;7.88;;
70543;SDS011;58097;48.364;-1.224;2022-12-07T03:00:23;15.30;;;8.65;;
70543;SDS011;58097;48.364;-1.224;2022-12-07T03:02:59;16.42;;;8.80;;
70543;SDS011;58097;48.364;-1.224;2022-12-07T03:11:09;17.20;;;8.32;;
70543;SDS011;58097;48.364;-1.224;2022-12-07T03:16:37;14.23;;;8.25;;
70543;SDS011;58097;48.364;-1.224;2022-12-07T03:19:11;12.68;;;7.78;;
70543;SDS011;58097;48.364;-1.224;2022-12-07T03:21:40;13.50;;;8.05;;
70543;SDS011;58097;48.364;-1.224;2022-12-07T03:24:10;14.23;;;8.35;;
70543;SDS011;58097;48.364;-1.224;2022-12-07T03:26:41;14.82;;;7.53;;
70543;SDS011;58097;48.364;-1.224;2022-12-07T03:29:16;12.70;;;6.75;;
70543;SDS011;58097;48.364;-1.224;2022-12-07T03:31:47;11.23;;;7.00;;
70543;SDS011;58097;48.364;-1.224;2022-12-07T03:37:08;12.85;;;7.13;;
70543;SDS011;58097;48.364;-1.224;2022-12-07T03:39:49;13.02;;;7.72;;
70543;SDS011;58097;48.364;-1.224;2022-12-07T03:42:19;14.75;;;7.45;;
70543;SDS011;58097;48.364;-1.224;2022-12-07T03:44:45;16.23;;;7.90;;
70543;SDS011;58097;48.364;-1.224;2022-12-07T03:47:16;13.43;;;7.85;;
70543;SDS011;58097;48.364;-1.224;2022-12-07T03:49:49;11.80;;;5.97;;
70543;SDS011;58097;48.364;-1.224;2022-12-07T03:55:30;12.35;;;5.43;;
70543;SDS011;58097;48.364;-1.224;2022-12-07T03:58:00;13.77;;;7.10;;
70543;SDS011;58097;48.364;-1.224;2022-12-07T04:00:30;12.85;;;7.55;;
70543;SDS011;58097;48.364;-1.224;2022-12-07T04:02:55;13.05;;;7.28;;
70543;SDS011;58097;48.364;-1.224;2022-12-07T04:05:22;11.70;;;6.70;;
70543;SDS011;58097;48.364;-1.224;2022-12-07T04:07:48;10.77;;;7.20;;
70543;SDS011;58097;48.364;-1.224;2022-12-07T04:10:13;11.82;;;6.65;;
70543;SDS011;58097;48.364;-1.224;2022-12-07T04:12:39;11.52;;;6.88;;
70543;SDS011;58097;48.364;-1.224;2022-12-07T04:15:04;14.77;;;7.57;;
70543;SDS011;58097;48.364;-1.224;2022-12-07T04:17:30;13.65;;;7.03;;
70543;SDS011;58097;48.364;-1.224;2022-12-07T04:19:56;11.23;;;6.85;;
70543;SDS011;58097;48.364;-1.224;2022-12-07T04:22:21;14.55;;;7.07;;
70543;SDS011;58097;48.364;-1.224;2022-12-07T04:24:47;11.80;;;6.90;;
70543;SDS011;58097;48.364;-1.224;2022-12-07T04:27:12;11.55;;;6.72;;
70543;SDS011;58097;48.364;-1.224;2022-12-07T04:29:38;15.25;;;6.45;;
70543;SDS011;58097;48.364;-1.224;2022-12-07T04:32:03;13.18;;;7.25;;
70543;SDS011;58097;48.364;-1.224;2022-12-07T04:34:29;13.38;;;7.25;;
70543;SDS011;58097;48.364;-1.224;2022-12-07T04:36:54;12.52;;;7.13;;
70543;SDS011;58097;48.364;-1.224;2022-12-07T04:41:49;15.98;;;8.02;;
70543;SDS011;58097;48.364;-1.224;2022-12-07T04:44:15;15.70;;;7.93;;
70543;SDS011;58097;48.364;-1.224;2022-12-07T04:46:41;14.27;;;8.18;;
70543;SDS011;58097;48.364;-1.224;2022-12-07T04:49:07;11.57;;;7.10;;
70543;SDS011;58097;48.364;-1.224;2022-12-07T04:51:32;15.82;;;7.47;;
70543;SDS011;58097;48.364;-1.224;2022-12-07T04:53:58;12.38;;;7.07;;
70543;SDS011;58097;48.364;-1.224;2022-12-07T04:56:23;13.95;;;7.55;;
70543;SDS011;58097;48.364;-1.224;2022-12-07T04:58:49;13.13;;;8.18;;
70543;SDS011;58097;48.364;-1.224;2022-12-07T05:01:17;14.18;;;8.10;;
70543;SDS011;58097;48.364;-1.224;2022-12-07T05:03:43;19.95;;;8.75;;
70543;SDS011;58097;48.364;-1.224;2022-12-07T05:06:09;13.68;;;8.00;;
70543;SDS011;58097;48.364;-1.224;2022-12-07T05:08:35;17.50;;;8.75;;
70543;SDS011;58097;48.364;-1.224;2022-12-07T05:11:02;14.85;;;8.23;;
70543;SDS011;58097;48.364;-1.224;2022-12-07T05:13:29;12.57;;;7.55;;
70543;SDS011;58097;48.364;-1.224;2022-12-07T05:15:54;15.38;;;7.85;;
70543;SDS011;58097;48.364;-1.224;2022-12-07T05:18:20;13.00;;;7.43;;
70543;SDS011;58097;48.364;-1.224;2022-12-07T05:20:45;15.20;;;8.65;;
70543;SDS011;58097;48.364;-1.224;2022-12-07T05:23:11;17.75;;;7.43;;
70543;SDS011;58097;48.364;-1.224;2022-12-07T05:25:37;15.85;;;7.75;;
70543;SDS011;58097;48.364;-1.224;2022-12-07T05:28:03;16.23;;;9.10;;
70543;SDS011;58097;48.364;-1.224;2022-12-07T05:30:29;19.38;;;9.63;;
70543;SDS011;58097;48.364;-1.224;2022-12-07T05:32:54;21.45;;;10.68;;
70543;SDS011;58097;48.364;-1.224;2022-12-07T05:35:20;30.13;;;10.35;;
70543;SDS011;58097;48.364;-1.224;2022-12-07T05:37:46;23.02;;;10.05;;
70543;SDS011;58097;48.364;-1.224;2022-12-07T05:40:12;21.98;;;9.40;;
70543;SDS011;58097;48.364;-1.224;2022-12-07T05:42:38;30.73;;;10.55;;
70543;SDS011;58097;48.364;-1.224;2022-12-07T05:45:04;19.70;;;9.85;;
70543;SDS011;58097;48.364;-1.224;2022-12-07T05:47:30;20.90;;;9.60;;
70543;SDS011;58097;48.364;-1.224;2022-12-07T05:49:56;19.58;;;10.70;;
70543;SDS011;58097;48.364;-1.224;2022-12-07T05:52:21;20.30;;;9.48;;
70543;SDS011;58097;48.364;-1.224;2022-12-07T05:54:47;18.38;;;8.90;;
70543;SDS011;58097;48.364;-1.224;2022-12-07T05:57:12;18.33;;;9.20;;
70543;SDS011;58097;48.364;-1.224;2022-12-07T05:59:38;16.65;;;9.20;;
70543;SDS011;58097;48.364;-1.224;2022-12-07T06:02:05;22.17;;;10.73;;
70543;SDS011;58097;48.364;-1.224;2022-12-07T06:04:31;16.65;;;8.38;;
70543;SDS011;58097;48.364;-1.224;2022-12-07T06:06:59;14.27;;;7.63;;
70543;SDS011;58097;48.364;-1.224;2022-12-07T06:09:25;17.92;;;9.07;;
70543;SDS011;58097;48.364;-1.224;2022-12-07T06:11:52;16.85;;;8.27;;
70543;SDS011;58097;48.364;-1.224;2022-12-07T06:14:37;16.77;;;9.55;;
70543;SDS011;58097;48.364;-1.224;2022-12-07T06:17:02;18.17;;;9.18;;
70543;SDS011;58097;48.364;-1.224;2022-12-07T06:19:28;20.55;;;9.93;;
70543;SDS011;58097;48.364;-1.224;2022-12-07T06:21:53;21.55;;;11.00;;
70543;SDS011;58097;48.364;-1.224;2022-12-07T06:24:19;21.48;;;10.75;;
70543;SDS011;58097;48.364;-1.224;2022-12-07T06:26:45;21.80;;;11.20;;
70543;SDS011;58097;48.364;-1.224;2022-12-07T06:29:11;22.73;;;10.52;;
70543;SDS011;58097;48.364;-1.224;2022-12-07T06:31:37;26.35;;;11.88;;
70543;SDS011;58097;48.364;-1.224;2022-12-07T06:34:04;27.80;;;13.73;;
70543;SDS011;58097;48.364;-1.224;2022-12-07T06:36:31;42.72;;;18.23;;
70543;SDS011;58097;48.364;-1.224;2022-12-07T06:38:56;38.95;;;16.55;;
70543;SDS011;58097;48.364;-1.224;2022-12-07T06:41:22;29.33;;;14.20;;
70543;SDS011;58097;48.364;-1.224;2022-12-07T06:43:47;29.15;;;13.65;;
70543;SDS011;58097;48.364;-1.224;2022-12-07T06:46:13;29.35;;;13.35;;
70543;SDS011;58097;48.364;-1.224;2022-12-07T06:48:39;31.13;;;13.25;;
70543;SDS011;58097;48.364;-1.224;2022-12-07T06:51:05;25.00;;;11.32;;
70543;SDS011;58097;48.364;-1.224;2022-12-07T06:53:31;20.15;;;10.60;;
70543;SDS011;58097;48.364;-1.224;2022-12-07T06:55:56;23.27;;;10.85;;
70543;SDS011;58097;48.364;-1.224;2022-12-07T06:58:21;25.52;;;11.15;;
70543;SDS011;58097;48.364;-1.224;2022-12-07T07:00:47;21.02;;;10.75;;
70543;SDS011;58097;48.364;-1.224;2022-12-07T07:03:14;21.80;;;10.02;;
70543;SDS011;58097;48.364;-1.224;2022-12-07T07:05:39;18.55;;;10.65;;
70543;SDS011;58097;48.364;-1.224;2022-12-07T07:08:05;18.80;;;10.35;;
70543;SDS011;58097;48.364;-1.224;2022-12-07T07:10:30;22.27;;;10.30;;
70543;SDS011;58097;48.364;-1.224;2022-12-07T07:12:56;21.83;;;10.18;;
70543;SDS011;58097;48.364;-1.224;2022-12-07T07:15:21;21.25;;;9.70;;
70543;SDS011;58097;48.364;-1.224;2022-12-07T07:17:46;20.30;;;9.70;;
70543;SDS011;58097;48.364;-1.224;2022-12-07T07:20:12;19.65;;;9.90;;
70543;SDS011;58097;48.364;-1.224;2022-12-07T07:22:38;30.15;;;11.05;;
70543;SDS011;58097;48.364;-1.224;2022-12-07T07:25:03;18.13;;;10.23;;
70543;SDS011;58097;48.364;-1.224;2022-12-07T07:27:29;20.15;;;11.13;;
70543;SDS011;58097;48.364;-1.224;2022-12-07T07:29:54;21.27;;;10.82;;
70543;SDS011;58097;48.364;-1.224;2022-12-07T07:32:20;21.92;;;10.80;;
70543;SDS011;58097;48.364;-1.224;2022-12-07T07:34:47;22.05;;;9.77;;
70543;SDS011;58097;48.364;-1.224;2022-12-07T07:37:12;21.58;;;9.77;;
70543;SDS011;58097;48.364;-1.224;2022-12-07T07:39:38;22.55;;;10.38;;
70543;SDS011;58097;48.364;-1.224;2022-12-07T07:42:03;18.00;;;9.60;;
70543;SDS011;58097;48.364;-1.224;2022-12-07T07:44:29;26.38;;;11.23;;
70543;SDS011;58097;48.364;-1.224;2022-12-07T07:46:54;18.70;;;9.73;;
70543;SDS011;58097;48.364;-1.224;2022-12-07T07:49:20;19.50;;;10.50;;
70543;SDS011;58097;48.364;-1.224;2022-12-07T07:51:45;28.52;;;13.50;;
70543;SDS011;58097;48.364;-1.224;2022-12-07T07:54:11;24.88;;;14.63;;
70543;SDS011;58097;48.364;-1.224;2022-12-07T07:56:36;29.27;;;12.85;;
70543;SDS011;58097;48.364;-1.224;2022-12-07T07:59:01;25.52;;;11.38;;
70543;SDS011;58097;48.364;-1.224;2022-12-07T08:01:27;25.38;;;10.90;;
70543;SDS011;58097;48.364;-1.224;2022-12-07T08:03:52;24.08;;;11.27;;
70543;SDS011;58097;48.364;-1.224;2022-12-07T08:06:18;24.15;;;10.52;;
70543;SDS011;58097;48.364;-1.224;2022-12-07T08:08:43;21.35;;;10.38;;
70543;SDS011;58097;48.364;-1.224;2022-12-07T08:11:09;20.08;;;9.43;;
70543;SDS011;58097;48.364;-1.224;2022-12-07T08:13:35;19.70;;;10.25;;
70543;SDS011;58097;48.364;-1.224;2022-12-07T08:16:04;28.25;;;11.68;;
70543;SDS011;58097;48.364;-1.224;2022-12-07T08:18:37;18.63;;;10.02;;
70543;SDS011;58097;48.364;-1.224;2022-12-07T08:21:03;19.98;;;10.73;;
70543;SDS011;58097;48.364;-1.224;2022-12-07T08:23:30;27.70;;;10.60;;
70543;SDS011;58097;48.364;-1.224;2022-12-07T08:25:59;22.67;;;11.13;;
70543;SDS011;58097;48.364;-1.224;2022-12-07T08:28:26;17.17;;;9.95;;
70543;SDS011;58097;48.364;-1.224;2022-12-07T08:30:52;21.20;;;10.27;;
70543;SDS011;58097;48.364;-1.224;2022-12-07T08:35:50;17.95;;;9.50;;
70543;SDS011;58097;48.364;-1.224;2022-12-07T08:38:15;21.83;;;10.57;;
70543;SDS011;58097;48.364;-1.224;2022-12-07T08:40:40;20.50;;;10.23;;
70543;SDS011;58097;48.364;-1.224;2022-12-07T08:43:06;22.73;;;12.13;;
70543;SDS011;58097;48.364;-1.224;2022-12-07T08:45:31;19.48;;;10.55;;
70543;SDS011;58097;48.364;-1.224;2022-12-07T08:48:02;22.70;;;11.40;;
70543;SDS011;58097;48.364;-1.224;2022-12-07T08:50:32;22.45;;;10.57;;
70543;SDS011;58097;48.364;-1.224;2022-12-07T08:52:59;25.80;;;11.00;;
70543;SDS011;58097;48.364;-1.224;2022-12-07T08:55:25;22.60;;;10.88;;
70543;SDS011;58097;48.364;-1.224;2022-12-07T08:57:52;21.05;;;10.43;;
70543;SDS011;58097;48.364;-1.224;2022-12-07T09:00:18;24.77;;;11.50;;
70543;SDS011;58097;48.364;-1.224;2022-12-07T09:02:44;23.30;;;11.32;;
70543;SDS011;58097;48.364;-1.224;2022-12-07T09:05:10;26.02;;;11.23;;
70543;SDS011;58097;48.364;-1.224;2022-12-07T09:07:36;28.15;;;12.32;;
70543;SDS011;58097;48.364;-1.224;2022-12-07T09:10:05;28.55;;;12.40;;
70543;SDS011;58097;48.364;-1.224;2022-12-07T09:12:31;25.90;;;11.57;;
70543;SDS011;58097;48.364;-1.224;2022-12-07T09:14:56;24.45;;;11.27;;
70543;SDS011;58097;48.364;-1.224;2022-12-07T09:17:22;24.30;;;12.02;;
70543;SDS011;58097;48.364;-1.224;2022-12-07T09:19:47;25.00;;;11.48;;
70543;SDS011;58097;48.364;-1.224;2022-12-07T09:22:12;24.13;;;11.90;;
70543;SDS011;58097;48.364;-1.224;2022-12-07T09:24:38;22.58;;;11.25;;
70543;SDS011;58097;48.364;-1.224;2022-12-07T09:27:03;23.67;;;11.73;;
70543;SDS011;58097;48.364;-1.224;2022-12-07T09:29:29;23.75;;;11.73;;
70543;SDS011;58097;48.364;-1.224;2022-12-07T09:31:54;26.58;;;12.68;;
70543;SDS011;58097;48.364;-1.224;2022-12-07T09:34:20;30.17;;;13.45;;
70543;SDS011;58097;48.364;-1.224;2022-12-07T09:36:46;24.05;;;11.45;;
70543;SDS011;58097;48.364;-1.224;2022-12-07T09:39:11;26.10;;;13.43;;
70543;SDS011;58097;48.364;-1.224;2022-12-07T09:41:40;28.38;;;13.95;;
70543;SDS011;58097;48.364;-1.224;2022-12-07T09:44:11;27.92;;;12.48;;
70543;SDS011;58097;48.364;-1.224;2022-12-07T09:46:40;25.33;;;12.00;;
70543;SDS011;58097;48.364;-1.224;2022-12-07T09:49:14;25.80;;;11.88;;
70543;SDS011;58097;48.364;-1.224;2022-12-07T09:51:43;25.77;;;12.60;;
70543;SDS011;58097;48.364;-1.224;2022-12-07T09:54:11;27.20;;;12.82;;
70543;SDS011;58097;48.364;-1.224;2022-12-07T09:56:38;21.67;;;11.07;;
70543;SDS011;58097;48.364;-1.224;2022-12-07T09:59:04;20.17;;;10.35;;
70543;SDS011;58097;48.364;-1.224;2022-12-07T10:01:30;25.42;;;13.48;;
70543;SDS011;58097;48.364;-1.224;2022-12-07T10:04:12;27.67;;;12.95;;
70543;SDS011;58097;48.364;-1.224;2022-12-07T10:06:42;24.77;;;12.40;;
70543;SDS011;58097;48.364;-1.224;2022-12-07T10:09:17;24.35;;;13.05;;
70543;SDS011;58097;48.364;-1.224;2022-12-07T10:14:35;25.38;;;12.25;;
70543;SDS011;58097;48.364;-1.224;2022-12-07T10:17:08;21.67;;;11.93;;
70543;SDS011;58097;48.364;-1.224;2022-12-07T10:23:00;23.25;;;12.57;;
70543;SDS011;58097;48.364;-1.224;2022-12-07T10:25:30;19.77;;;12.48;;
70543;SDS011;58097;48.364;-1.224;2022-12-07T10:30:26;25.27;;;11.27;;
70543;SDS011;58097;48.364;-1.224;2022-12-07T10:32:52;26.98;;;14.43;;
70543;SDS011;58097;48.364;-1.224;2022-12-07T10:35:22;18.17;;;11.25;;
70543;SDS011;58097;48.364;-1.224;2022-12-07T10:37:50;24.80;;;14.20;;
70543;SDS011;58097;48.364;-1.224;2022-12-07T10:40:33;24.65;;;13.30;;
70543;SDS011;58097;48.364;-1.224;2022-12-07T10:43:01;22.90;;;13.20;;
70543;SDS011;58097;48.364;-1.224;2022-12-07T10:45:29;24.63;;;14.52;;
70543;SDS011;58097;48.364;-1.224;2022-12-07T10:53:32;25.27;;;15.00;;
70543;SDS011;58097;48.364;-1.224;2022-12-07T10:56:27;23.65;;;13.35;;
70543;SDS011;58097;48.364;-1.224;2022-12-07T11:06:54;24.80;;;13.90;;
70543;SDS011;58097;48.364;-1.224;2022-12-07T11:09:30;20.73;;;13.05;;
70543;SDS011;58097;48.364;-1.224;2022-12-07T11:17:17;20.98;;;11.38;;
70543;SDS011;58097;48.364;-1.224;2022-12-07T11:27:37;16.63;;;8.98;;
70543;SDS011;58097;48.364;-1.224;2022-12-07T11:30:13;19.52;;;9.93;;
70543;SDS011;58097;48.364;-1.224;2022-12-07T11:41:00;10.95;;;6.88;;
70543;SDS011;58097;48.364;-1.224;2022-12-07T11:43:37;12.77;;;7.80;;
70543;SDS011;58097;48.364;-1.224;2022-12-07T11:46:19;16.35;;;7.65;;
70543;SDS011;58097;48.364;-1.224;2022-12-07T11:49:10;17.58;;;8.70;;
70543;SDS011;58097;48.364;-1.224;2022-12-07T11:51:58;13.70;;;7.22;;
70543;SDS011;58097;48.364;-1.224;2022-12-07T11:54:30;15.00;;;7.57;;
70543;SDS011;58097;48.364;-1.224;2022-12-07T11:59:39;15.05;;;8.32;;
70543;SDS011;58097;48.364;-1.224;2022-12-07T12:07:46;11.20;;;5.55;;
70543;SDS011;58097;48.364;-1.224;2022-12-07T12:10:19;10.38;;;5.80;;
70543;SDS011;58097;48.364;-1.224;2022-12-07T12:12:56;11.55;;;7.28;;
70543;SDS011;58097;48.364;-1.224;2022-12-07T12:18:40;12.30;;;6.88;;
70543;SDS011;58097;48.364;-1.224;2022-12-07T12:21:26;6.55;;;5.07;;
70543;SDS011;58097;48.364;-1.224;2022-12-07T12:24:04;10.85;;;5.80;;
70543;SDS011;58097;48.364;-1.224;2022-12-07T12:26:37;7.03;;;4.90;;
70543;SDS011;58097;48.364;-1.224;2022-12-07T12:29:13;9.05;;;5.82;;
70543;SDS011;58097;48.364;-1.224;2022-12-07T12:32:17;9.10;;;4.68;;
70543;SDS011;58097;48.364;-1.224;2022-12-07T12:38:01;6.45;;;4.18;;
70543;SDS011;58097;48.364;-1.224;2022-12-07T12:42:56;8.57;;;4.68;;
70543;SDS011;58097;48.364;-1.224;2022-12-07T12:47:53;8.43;;;4.55;;
70543;SDS011;58097;48.364;-1.224;2022-12-07T12:52:58;6.85;;;3.92;;
70543;SDS011;58097;48.364;-1.224;2022-12-07T12:56:17;7.45;;;4.75;;
70543;SDS011;58097;48.364;-1.224;2022-12-07T12:58:35;7.18;;;4.30;;
70543;SDS011;58097;48.364;-1.224;2022-12-07T13:04:02;6.25;;;4.35;;
70543;SDS011;58097;48.364;-1.224;2022-12-07T13:06:39;8.68;;;4.75;;
70543;SDS011;58097;48.364;-1.224;2022-12-07T13:09:15;13.60;;;6.70;;
70543;SDS011;58097;48.364;-1.224;2022-12-07T13:11:55;13.40;;;6.28;;
70543;SDS011;58097;48.364;-1.224;2022-12-07T13:17:02;8.93;;;4.93;;
70543;SDS011;58097;48.364;-1.224;2022-12-07T13:20:43;7.65;;;4.95;;
70543;SDS011;58097;48.364;-1.224;2022-12-07T13:25:18;6.90;;;4.07;;
70543;SDS011;58097;48.364;-1.224;2022-12-07T13:28:00;11.80;;;4.22;;
70543;SDS011;58097;48.364;-1.224;2022-12-07T13:30:32;7.43;;;4.85;;
70543;SDS011;58097;48.364;-1.224;2022-12-07T13:33:09;8.85;;;5.55;;
70543;SDS011;58097;48.364;-1.224;2022-12-07T13:35:36;10.02;;;5.63;;
70543;SDS011;58097;48.364;-1.224;2022-12-07T13:38:04;9.73;;;4.85;;
70543;SDS011;58097;48.364;-1.224;2022-12-07T13:40:31;10.25;;;4.65;;
70543;SDS011;58097;48.364;-1.224;2022-12-07T13:42:57;7.95;;;4.50;;
70543;SDS011;58097;48.364;-1.224;2022-12-07T13:45:29;5.50;;;4.35;;
70543;SDS011;58097;48.364;-1.224;2022-12-07T13:49:02;4.95;;;4.13;;
70543;SDS011;58097;48.364;-1.224;2022-12-07T13:51:24;7.85;;;3.88;;
70543;SDS011;58097;48.364;-1.224;2022-12-07T13:54:01;7.53;;;4.82;;
70543;SDS011;58097;48.364;-1.224;2022-12-07T13:56:34;5.93;;;4.13;;
70543;SDS011;58097;48.364;-1.224;2022-12-07T13:59:01;10.48;;;4.18;;
70543;SDS011;58097;48.364;-1.224;2022-12-07T14:01:28;10.15;;;3.80;;
70543;SDS011;58097;48.364;-1.224;2022-12-07T14:03:55;7.03;;;4.43;;
70543;SDS011;58097;48.364;-1.224;2022-12-07T14:06:50;6.05;;;3.90;;
70543;SDS011;58097;48.364;-1.224;2022-12-07T14:09:18;7.07;;;3.28;;
70543;SDS011;58097;48.364;-1.224;2022-12-07T14:11:52;8.95;;;3.85;;
70543;SDS011;58097;48.364;-1.224;2022-12-07T14:14:20;7.65;;;3.05;;
70543;SDS011;58097;48.364;-1.224;2022-12-07T14:16:58;7.28;;;4.22;;
70543;SDS011;58097;48.364;-1.224;2022-12-07T14:22:19;3.85;;;3.20;;
70543;SDS011;58097;48.364;-1.224;2022-12-07T14:24:45;6.72;;;3.22;;
70543;SDS011;58097;48.364;-1.224;2022-12-07T14:27:17;5.60;;;3.22;;
70543;SDS011;58097;48.364;-1.224;2022-12-07T14:29:44;7.63;;;4.40;;
70543;SDS011;58097;48.364;-1.224;2022-12-07T14:32:20;4.45;;;2.90;;
70543;SDS011;58097;48.364;-1.224;2022-12-07T14:35:00;4.82;;;3.67;;
70543;SDS011;58097;48.364;-1.224;2022-12-07T14:37:32;6.95;;;3.70;;
70543;SDS011;58097;48.364;-1.224;2022-12-07T14:39:58;4.78;;;3.10;;
70543;SDS011;58097;48.364;-1.224;2022-12-07T14:42:24;6.45;;;3.80;;
70543;SDS011;58097;48.364;-1.224;2022-12-07T14:44:53;6.55;;;3.90;;
70543;SDS011;58097;48.364;-1.224;2022-12-07T14:47:18;4.82;;;3.38;;
70543;SDS011;58097;48.364;-1.224;2022-12-07T14:49:43;5.10;;;3.30;;
70543;SDS011;58097;48.364;-1.224;2022-12-07T14:52:17;6.00;;;3.40;;
70543;SDS011;58097;48.364;-1.224;2022-12-07T14:55:01;6.43;;;3.90;;
70543;SDS011;58097;48.364;-1.224;2022-12-07T14:57:26;8.90;;;4.28;;
70543;SDS011;58097;48.364;-1.224;2022-12-07T14:59:52;5.10;;;3.70;;
70543;SDS011;58097;48.364;-1.224;2022-12-07T15:02:17;7.45;;;4.15;;
70543;SDS011;58097;48.364;-1.224;2022-12-07T15:04:42;7.00;;;3.97;;
70543;SDS011;58097;48.364;-1.224;2022-12-07T15:07:16;5.18;;;3.75;;
70543;SDS011;58097;48.364;-1.224;2022-12-07T15:09:45;4.82;;;3.67;;
70543;SDS011;58097;48.364;-1.224;2022-12-07T15:12:10;6.43;;;3.60;;
70543;SDS011;58097;48.364;-1.224;2022-12-07T15:14:36;5.70;;;4.28;;
70543;SDS011;58097;48.364;-1.224;2022-12-07T15:17:01;10.10;;;4.30;;
70543;SDS011;58097;48.364;-1.224;2022-12-07T15:19:26;7.78;;;3.70;;
70543;SDS011;58097;48.364;-1.224;2022-12-07T15:21:52;6.40;;;3.67;;
70543;SDS011;58097;48.364;-1.224;2022-12-07T15:24:18;5.45;;;4.03;;
70543;SDS011;58097;48.364;-1.224;2022-12-07T15:26:44;6.93;;;5.03;;
70543;SDS011;58097;48.364;-1.224;2022-12-07T15:29:10;7.70;;;4.97;;
70543;SDS011;58097;48.364;-1.224;2022-12-07T15:31:35;7.22;;;4.40;;
70543;SDS011;58097;48.364;-1.224;2022-12-07T15:34:01;16.77;;;7.35;;
70543;SDS011;58097;48.364;-1.224;2022-12-07T15:36:27;16.50;;;7.47;;
70543;SDS011;58097;48.364;-1.224;2022-12-07T15:38:54;13.90;;;6.28;;
70543;SDS011;58097;48.364;-1.224;2022-12-07T15:41:20;9.93;;;6.32;;
70543;SDS011;58097;48.364;-1.224;2022-12-07T15:43:46;8.75;;;5.88;;
70543;SDS011;58097;48.364;-1.224;2022-12-07T15:46:31;8.52;;;5.85;;
70543;SDS011;58097;48.364;-1.224;2022-12-07T15:49:02;9.80;;;6.30;;
70543;SDS011;58097;48.364;-1.224;2022-12-07T15:51:28;12.20;;;6.70;;
70543;SDS011;58097;48.364;-1.224;2022-12-07T15:53:54;6.22;;;4.93;;
70543;SDS011;58097;48.364;-1.224;2022-12-07T15:56:19;10.90;;;6.97;;
70543;SDS011;58097;48.364;-1.224;2022-12-07T15:58:45;10.38;;;7.10;;
70543;SDS011;58097;48.364;-1.224;2022-12-07T16:01:11;10.40;;;6.68;;
70543;SDS011;58097;48.364;-1.224;2022-12-07T16:03:37;10.10;;;6.45;;
70543;SDS011;58097;48.364;-1.224;2022-12-07T16:06:03;10.00;;;6.10;;
70543;SDS011;58097;48.364;-1.224;2022-12-07T16:08:28;9.48;;;5.55;;
70543;SDS011;58097;48.364;-1.224;2022-12-07T16:10:54;10.50;;;6.60;;
70543;SDS011;58097;48.364;-1.224;2022-12-07T16:13:19;11.10;;;6.70;;
70543;SDS011;58097;48.364;-1.224;2022-12-07T16:15:45;11.98;;;7.30;;
70543;SDS011;58097;48.364;-1.224;2022-12-07T16:18:11;11.70;;;7.82;;
70543;SDS011;58097;48.364;-1.224;2022-12-07T16:20:37;9.82;;;7.28;;
70543;SDS011;58097;48.364;-1.224;2022-12-07T16:23:02;11.23;;;7.28;;
70543;SDS011;58097;48.364;-1.224;2022-12-07T16:25:27;14.27;;;8.25;;
70543;SDS011;58097;48.364;-1.224;2022-12-07T16:27:53;10.55;;;7.80;;